createdAt,value
2023-04-17T00:00:43.648Z,15.38
2023-04-17T00:05:45.947Z,15.98
2023-04-17T00:10:51.118Z,15.93
2023-04-17T00:15:56.167Z,18.17
2023-04-17T00:20:59.025Z,17.08
2023-04-17T00:25:58.634Z,14.77
2023-04-17T00:30:59.099Z,14.98
2023-04-17T00:35:57.197Z,15.57
2023-04-17T00:40:57.502Z,15.02
2023-04-17T00:45:57.495Z,16.65
2023-04-17T00:51:02.395Z,17.80
2023-04-17T00:56:05.012Z,18.05
2023-04-17T01:01:14.382Z,16.60
2023-04-17T01:06:14.082Z,16.83
2023-04-17T01:11:14.018Z,17.42
2023-04-17T01:16:13.485Z,17.48
2023-04-17T01:21:13.386Z,17.73
2023-04-17T01:26:18.192Z,18.40
2023-04-17T01:31:18.702Z,17.92
2023-04-17T01:36:23.103Z,17.80
2023-04-17T01:41:25.006Z,17.48
2023-04-17T01:46:25.209Z,18.98
2023-04-17T01:51:28.132Z,16.60
2023-04-17T01:56:32.311Z,17.87
2023-04-17T02:01:31.573Z,17.25
2023-04-17T02:06:35.315Z,19.38
2023-04-17T02:11:35.855Z,22.25
2023-04-17T02:16:36.567Z,17.80
2023-04-17T02:21:40.169Z,18.77
2023-04-17T02:26:42.200Z,20.92
2023-04-17T02:31:46.546Z,18.45
2023-04-17T02:36:51.182Z,18.00
2023-04-17T02:41:53.210Z,17.42
2023-04-17T02:46:52.299Z,20.00
2023-04-17T02:51:54.323Z,20.10
2023-04-17T02:56:53.446Z,17.77
2023-04-17T03:01:53.728Z,19.58
2023-04-17T03:06:54.428Z,19.80
2023-04-17T03:11:54.484Z,20.10
2023-04-17T03:16:58.304Z,19.10
2023-04-17T03:26:58.838Z,15.27
2023-04-17T03:32:01.481Z,16.85
2023-04-17T03:36:59.867Z,16.10
2023-04-17T03:42:03.447Z,17.23
2023-04-17T03:47:01.848Z,16.27
2023-04-17T03:52:04.015Z,17.75
2023-04-17T03:57:04.202Z,16.70
2023-04-17T04:02:11.913Z,14.75
2023-04-17T04:07:11.331Z,17.30
2023-04-17T04:12:16.489Z,16.95
2023-04-17T04:17:22.266Z,16.48
2023-04-17T04:22:29.782Z,16.60
2023-04-17T04:27:33.881Z,14.70
2023-04-17T04:32:38.808Z,15.00
2023-04-17T04:37:43.182Z,14.60
2023-04-17T04:42:49.901Z,16.15
2023-04-17T04:48:00.877Z,13.65
2023-04-17T04:53:01.900Z,15.48
2023-04-17T04:58:38.324Z,16.05
2023-04-17T05:03:40.926Z,14.57
2023-04-17T05:08:52.917Z,16.10
2023-04-17T05:13:54.090Z,15.90
2023-04-17T05:18:58.006Z,16.80
2023-04-17T05:24:16.548Z,13.93
2023-04-17T05:29:26.327Z,14.05
2023-04-17T05:34:30.302Z,16.00
2023-04-17T05:39:29.162Z,14.50
2023-04-17T05:45:10.053Z,15.85
2023-04-17T05:50:40.374Z,15.43
2023-04-17T05:55:41.925Z,15.40
2023-04-17T06:01:13.717Z,15.67
2023-04-17T06:06:21.796Z,69.25
2023-04-17T06:11:25.535Z,15.15
2023-04-17T06:16:26.835Z,15.00
2023-04-17T06:21:24.897Z,15.52
2023-04-17T06:26:22.987Z,15.75
2023-04-17T06:31:22.629Z,14.85
2023-04-17T06:36:22.567Z,14.18
2023-04-17T06:41:25.428Z,14.90
2023-04-17T06:46:30.548Z,12.05
2023-04-17T06:51:32.056Z,11.88
2023-04-17T06:56:36.930Z,13.50
2023-04-17T07:01:35.994Z,11.80
2023-04-17T07:06:36.792Z,11.90
2023-04-17T07:17:06.932Z,12.15
2023-04-17T07:22:08.292Z,11.45
2023-04-17T07:27:08.604Z,11.95
2023-04-17T07:32:29.394Z,11.15
2023-04-17T07:37:28.812Z,11.23
2023-04-17T07:42:34.894Z,11.07
2023-04-17T07:47:34.205Z,10.93
2023-04-17T07:52:31.937Z,10.13
2023-04-17T07:57:42.977Z,8.40
2023-04-17T08:02:44.100Z,9.45
2023-04-17T08:07:44.030Z,9.35
2023-04-17T08:12:45.358Z,9.93
2023-04-17T08:17:52.452Z,10.88
2023-04-17T08:22:54.623Z,12.07
2023-04-17T08:27:52.965Z,9.70
2023-04-17T08:32:55.793Z,9.40
2023-04-17T08:37:58.994Z,9.40
2023-04-17T08:42:59.144Z,9.30
2023-04-17T08:48:01.965Z,9.07
2023-04-17T08:53:01.777Z,10.20
2023-04-17T08:58:04.263Z,10.20
2023-04-17T09:03:12.537Z,12.18
2023-04-17T09:08:27.999Z,10.70
2023-04-17T09:13:33.547Z,11.35
2023-04-17T09:18:43.859Z,8.80
2023-04-17T09:23:55.735Z,8.30
2023-04-17T09:29:21.608Z,6.90
2023-04-17T09:34:22.012Z,6.82
2023-04-17T09:39:30.052Z,5.32
2023-04-17T09:44:32.730Z,6.05
2023-04-17T09:49:52.841Z,6.82
2023-04-17T09:54:55.103Z,6.70
2023-04-17T10:00:03.347Z,6.80
2023-04-17T10:05:09.000Z,6.75
2023-04-17T10:10:11.157Z,7.22
2023-04-17T10:15:16.099Z,7.60
2023-04-17T10:20:23.722Z,6.68
2023-04-17T10:25:35.321Z,5.65
2023-04-17T10:36:41.427Z,4.65
2023-04-17T10:47:43.041Z,6.10
2023-04-17T10:52:49.968Z,5.50
2023-04-17T10:57:53.310Z,4.95
2023-04-17T11:02:53.501Z,4.38
2023-04-17T11:07:53.216Z,4.97
2023-04-17T11:12:53.809Z,5.15
2023-04-17T11:17:52.912Z,5.30
2023-04-17T11:28:30.229Z,6.25
2023-04-17T11:33:37.312Z,6.63
2023-04-17T11:38:35.960Z,7.30
2023-04-17T11:43:39.064Z,7.57
2023-04-17T11:48:42.532Z,7.32
2023-04-17T11:53:48.590Z,7.82
2023-04-17T11:58:57.851Z,8.23
2023-04-17T12:03:59.296Z,6.50
2023-04-17T12:09:03.056Z,6.50
2023-04-17T12:14:07.980Z,5.30
2023-04-17T12:19:11.762Z,7.68
2023-04-17T12:24:13.576Z,6.38
2023-04-17T12:29:15.964Z,7.32
2023-04-17T12:34:20.899Z,7.43
2023-04-17T12:39:19.233Z,7.13
2023-04-17T12:44:34.050Z,7.07
2023-04-17T12:49:33.120Z,7.55
2023-04-17T12:54:36.394Z,7.95
2023-04-17T12:59:43.968Z,7.77
2023-04-17T13:04:43.855Z,8.05
2023-04-17T13:09:43.571Z,5.57
2023-04-17T13:14:44.547Z,7.20
2023-04-17T13:19:47.049Z,7.25
2023-04-17T13:24:51.761Z,6.20
2023-04-17T13:36:39.172Z,6.13
2023-04-17T13:41:41.379Z,7.37
2023-04-17T13:46:41.004Z,7.53
2023-04-17T13:51:39.650Z,6.07
2023-04-17T13:56:39.165Z,5.65
2023-04-17T14:01:44.920Z,6.28
2023-04-17T14:06:44.396Z,6.25
2023-04-17T14:11:42.986Z,7.10
2023-04-17T14:16:46.498Z,7.03
2023-04-17T14:21:44.934Z,7.38
2023-04-17T14:26:45.519Z,8.00
2023-04-17T14:31:46.467Z,8.05
2023-04-17T14:36:49.234Z,8.32
2023-04-17T14:42:02.256Z,7.43
2023-04-17T14:47:03.815Z,8.87
2023-04-17T14:52:03.502Z,8.95
2023-04-17T14:57:01.975Z,8.75
2023-04-17T15:02:03.123Z,9.35
2023-04-17T15:07:05.052Z,9.63
2023-04-17T15:12:07.962Z,9.32
2023-04-17T15:17:07.173Z,10.17
2023-04-17T15:22:11.369Z,9.25
2023-04-17T15:27:11.028Z,9.73
2023-04-17T15:32:13.156Z,9.65
2023-04-17T15:37:15.398Z,9.85
2023-04-17T15:42:18.254Z,8.32
2023-04-17T15:47:17.772Z,6.85
2023-04-17T15:52:16.958Z,6.28
2023-04-17T15:57:19.378Z,6.63
2023-04-17T16:02:21.706Z,6.93
2023-04-17T16:13:13.268Z,7.38
2023-04-17T16:18:16.381Z,6.07
2023-04-17T16:23:18.179Z,6.38
2023-04-17T16:28:18.271Z,5.57
2023-04-17T16:33:18.717Z,6.30
2023-04-17T16:38:18.283Z,6.45
2023-04-17T16:43:22.636Z,5.32
2023-04-17T16:48:30.773Z,5.50
2023-04-17T16:53:32.361Z,5.72
2023-04-17T16:58:34.936Z,5.65
2023-04-17T17:03:33.737Z,6.05
2023-04-17T17:08:32.475Z,5.80
2023-04-17T17:13:34.088Z,6.28
2023-04-17T17:18:35.966Z,5.25
2023-04-17T17:23:38.430Z,5.65
2023-04-17T17:28:38.491Z,4.47
2023-04-17T17:33:41.246Z,4.57
2023-04-17T17:38:44.127Z,4.68
2023-04-17T17:43:45.587Z,5.47
2023-04-17T17:48:50.694Z,6.28
2023-04-17T17:53:49.870Z,7.78
2023-04-17T17:58:54.089Z,7.20
2023-04-17T18:03:55.044Z,6.20
2023-04-17T18:08:54.380Z,5.88
2023-04-17T18:14:00.432Z,4.30
2023-04-17T18:19:02.114Z,4.85
2023-04-17T18:24:06.509Z,4.40
2023-04-17T18:29:06.184Z,6.97
2023-04-17T18:34:07.044Z,4.68
2023-04-17T18:39:05.690Z,4.60
2023-04-17T18:44:04.569Z,5.38
2023-04-17T18:49:11.658Z,5.00
2023-04-17T18:54:13.992Z,5.75
2023-04-17T19:04:57.700Z,5.28
2023-04-17T19:10:04.635Z,5.80
2023-04-17T19:15:17.992Z,6.47
2023-04-17T19:20:17.239Z,4.82
2023-04-17T19:25:18.913Z,5.07
2023-04-17T19:30:26.208Z,6.10
2023-04-17T19:35:38.737Z,6.55
2023-04-17T19:40:38.265Z,4.47
2023-04-17T19:45:50.697Z,4.75
2023-04-17T19:50:54.269Z,4.72
2023-04-17T19:56:43.182Z,4.90
2023-04-17T20:01:43.419Z,4.47
2023-04-17T20:06:48.120Z,5.78
2023-04-17T20:11:45.894Z,4.28
2023-04-17T20:16:46.672Z,5.43
2023-04-17T20:21:51.449Z,4.65
2023-04-17T20:26:53.903Z,4.03
2023-04-17T20:31:54.304Z,4.10
2023-04-17T20:37:03.670Z,4.55
2023-04-17T20:42:05.958Z,4.60
2023-04-17T20:47:06.960Z,4.47
2023-04-17T20:52:10.926Z,4.25
2023-04-17T20:57:16.122Z,4.10
2023-04-17T21:02:27.932Z,4.47
2023-04-17T21:07:30.009Z,4.18
2023-04-17T21:12:33.389Z,5.18
2023-04-17T21:17:36.508Z,4.38
2023-04-17T21:22:50.926Z,5.33
2023-04-17T21:27:52.792Z,4.55
2023-04-17T21:32:53.898Z,4.13
2023-04-17T21:37:55.514Z,4.10
2023-04-17T21:42:56.739Z,4.45
2023-04-17T21:48:00.542Z,4.07
2023-04-17T21:53:05.564Z,5.60
2023-04-17T21:58:05.667Z,3.70
2023-04-17T22:03:04.252Z,3.38
2023-04-17T22:08:34.226Z,4.38
2023-04-17T22:13:53.586Z,3.88
2023-04-17T22:19:25.627Z,5.47
2023-04-17T22:24:39.229Z,3.92
2023-04-17T22:29:38.893Z,4.30
2023-04-17T22:34:45.646Z,4.93
2023-04-17T22:39:45.766Z,5.07
2023-04-17T22:44:44.417Z,5.78
2023-04-17T22:49:47.075Z,4.88
2023-04-17T22:54:46.774Z,6.03
2023-04-17T22:59:48.582Z,6.75
2023-04-17T23:04:51.199Z,6.78
2023-04-17T23:09:51.838Z,8.10
2023-04-17T23:14:51.894Z,8.02
2023-04-17T23:19:55.480Z,11.05
2023-04-17T23:24:58.165Z,7.20
2023-04-17T23:29:58.038Z,8.77
2023-04-17T23:34:59.270Z,8.60
2023-04-17T23:40:05.317Z,6.80
2023-04-17T23:45:04.462Z,7.45
2023-04-17T23:50:05.616Z,7.07
2023-04-17T23:55:05.924Z,7.90
